Nearby METAR Reports

 

KDPA - Chicago/Dupage, Illinois, USA
Distance from station: ESE 9mi, 15km
Updated: Sun, 19-May-2019 8:52am CDT
Mostly cloudy
Mostly cloudy
 Wind from SSW
Wind: SSW 17 mph , 28 km/h, Gust: 24 mph , 39 km/h
Temperature: 70°F , 21°C
Dew Point: 61°F , 16°C
Humidity: 73%
Barometer: 29.60 inHg , 1002.4 hPa
Clouds: Mostly cloudy
Visibility: 10 miles , 16 km
Cloud details: Partly cloudy 2300 ft
Mostly cloudy 3700 ft
2019/05/19 13:52 KDPA 191352Z 20015G21KT 10SM SCT023 BKN037 21/16 A2960 RMK AO2 RAB18E39 SLP020 P0000 T02060161
KARR - Chicago/Aurora, Illinois, USA
Distance from station: SSW 14mi, 22km
Updated: Sun, 19-May-2019 8:52am CDT
Overcast
Overcast
 Wind from S
Wind: S 14 mph , 22 km/h, Gust: 24 mph , 39 km/h
Temperature: 66°F , 19°C
Dew Point: 61°F , 16°C
Humidity: 83%
Barometer: 29.60 inHg , 1002.4 hPa
Clouds: Overcast
Visibility: 10 miles , 16 km
Cloud details: Mostly cloudy 2200 ft
Overcast 3200 ft
2019/05/19 13:52 KARR 191352Z 19012G21KT 10SM BKN022 OVC032 19/16 A2960 RMK AO2 SLP022 T01940156
 
KDKB - De Kalb, Illinois, USA
Distance from station: W 14mi, 23km
Updated: Sun, 19-May-2019 9:15am CDT
Overcast
Overcast
 Wind from S
Wind: S 16 mph , 26 km/h
Temperature: 66°F , 19°C
Dew Point: 63°F , 17°C
Humidity: 88%
Barometer: 29.62 inHg , 1003 hPa
Clouds: Overcast
Visibility: 10 miles , 16 km
Cloud details: Mostly cloudy 1800 ft
Mostly cloudy 2500 ft
Overcast 3200 ft
2019/05/19 14:15 KDKB 191415Z AUTO 19014KT 10SM BKN018 BKN025 OVC032 19/17 A2962 RMK AO2 LTG DSNT W T01850170
KORD - Chicago O'hare, Illinois, USA
Distance from station: E 25mi, 41km
Updated: Sun, 19-May-2019 8:51am CDT
Light rain, Mostly cloudy
Light rain, Mostly cloudy
 Wind from SSW
Wind: SSW 17 mph , 28 km/h, Gust: 26 mph , 43 km/h
Temperature: 66°F , 19°C
Dew Point: 61°F , 16°C
Humidity: 83%
Barometer: 29.60 inHg , 1002.4 hPa
Summary: Light rain
Clouds: Mostly cloudy
Visibility: 10 miles , 16 km
Cloud details: Mostly cloudy 2500 ft
Mostly cloudy 5500 ft
Mostly cloudy 7500 ft
2019/05/19 13:51 KORD 191351Z 20015G23KT 10SM -RA BKN025 BKN055 BKN075 19/16 A2960 RMK AO2 PK WND 20030/1316 RAB39 SLP019 P0000 T01940156 $
 
KPWK - Palwaukee, Illinois, USA
Distance from station: ENE 29mi, 47km
Updated: Sun, 19-May-2019 8:52am CDT
Mostly cloudy
Mostly cloudy
 Wind from SSW
Wind: SSW 17 mph , 28 km/h, Gust: 30 mph , 48 km/h
Temperature: 70°F , 21°C
Dew Point: 59°F , 15°C
Humidity: 69%
Barometer: 29.60 inHg , 1002.4 hPa
Clouds: Mostly cloudy
Visibility: 10 miles , 16 km
Cloud details: Mostly cloudy 2700 ft
Mostly cloudy 3700 ft
2019/05/19 13:52 KPWK 191352Z 21015G26KT 10SM BKN027 BKN037 21/15 A2960 RMK AO2 PK WND 19034/1314 SLP021 T02060150
KLOT - Romeoville/Chi, Illinois, USA
Distance from station: SE 30mi, 48km
Updated: Sun, 19-May-2019 9:15am CDT
Overcast
Overcast
 Wind from SSW
Wind: SSW 18 mph , 30 km/h, Gust: 30 mph , 48 km/h
Temperature: 68°F , 20°C
Dew Point: 63°F , 17°C
Humidity: 83%
Barometer: 29.63 inHg , 1003.4 hPa
Clouds: Overcast
Visibility: 10 miles , 16 km
Cloud details: Overcast 2000 ft
2019/05/19 14:15 KLOT 191415Z AUTO 21016G26KT 10SM OVC020 20/17 A2963 RMK AO2 T01950166
 
KJOT - Joliet, Illinois, USA
Distance from station: SSE 33mi, 53km
Updated: Sun, 19-May-2019 9:15am CDT
Overcast
Overcast
 Wind from SSW
Wind: SSW 12 mph , 19 km/h, Gust: 16 mph , 26 km/h
Temperature: 70°F , 21°C
Dew Point: 66°F , 19°C
Humidity: 88%
Barometer: 29.63 inHg , 1003.4 hPa
Clouds: Overcast
Visibility: 10 miles , 16 km
Cloud details: Overcast 2000 ft
2019/05/19 14:15 KJOT 191415Z AUTO 21010G14KT 10SM OVC020 21/19 A2963 RMK AO2 LTG DSNT SW T02050185
KRPJ - Rochelle/Koritz, Illinois, USA
Distance from station: W 34mi, 55km
Updated: Sun, 19-May-2019 9:15am CDT
Overcast
Overcast
 Wind from SSW
Wind: SSW 14 mph , 22 km/h, Gust: 21 mph , 33 km/h
Temperature: 64°F , 18°C
Dew Point: 61°F , 16°C
Humidity: 88%
Barometer: 29.60 inHg , 1002.4 hPa
Clouds: Overcast
Visibility: 10 miles , 16 km
Cloud details: Partly cloudy 2000 ft
Overcast 2800 ft
2019/05/19 14:15 KRPJ 191415Z AUTO 20012G18KT 10SM SCT020 OVC028 18/16 A2960 RMK AO2 LTG DSNT W T01770164
 
KC09 - Morris-Washburn, Illinois, USA
Distance from station: S 36mi, 59km
Updated: Sun, 19-May-2019 9:15am CDT
Overcast
Overcast
 Wind from SSW
Wind: SSW 14 mph , 22 km/h, Gust: 18 mph , 30 km/h
Temperature: 68°F , 20°C
Dew Point: 63°F , 17°C
Humidity: 83%
Barometer: 29.62 inHg , 1003 hPa
Clouds: Overcast
Visibility: 10 miles , 16 km
Cloud details: Overcast 2000 ft
2019/05/19 14:15 KC09 191415Z AUTO 20012G16KT 10SM OVC020 20/17 A2962 RMK AO2 T01960172
KMDW - Chicago, Illinois, USA
Distance from station: ESE 37mi, 59km
Updated: Sun, 19-May-2019 9:14am CDT
Mostly cloudy
Mostly cloudy
 Wind from SSW
Wind: SSW 17 mph , 28 km/h, Gust: 31 mph , 50 km/h
Temperature: 68°F , 20°C
Dew Point: 63°F , 17°C
Humidity: 83%
Barometer: 29.62 inHg , 1003 hPa
Clouds: Mostly cloudy
Visibility: 10 miles , 16 km
Cloud details: Mostly cloudy 2300 ft
Mostly cloudy 3300 ft
Mostly cloudy 11000 ft
2019/05/19 14:14 KMDW 191414Z 20015G27KT 10SM BKN023 BKN033 BKN110 20/17 A2962 RMK AO2 PK WND 23027/1411 RAE1359 P0000 T02000167
 
KRFD - Rockford, Illinois, USA
Distance from station: WNW 38mi, 62km
Updated: Sun, 19-May-2019 8:54am CDT
Overcast
Overcast
 Wind from SSW
Wind: SSW 14 mph , 22 km/h, Gust: 26 mph , 43 km/h
Temperature: 66°F , 19°C
Dew Point: 61°F , 16°C
Humidity: 83%
Barometer: 29.58 inHg , 1001.7 hPa
Clouds: Overcast
Visibility: 10 miles , 16 km
Cloud details: Mostly cloudy 1800 ft
Overcast 4200 ft
2019/05/19 13:54 KRFD 191354Z 20012G23KT 10SM BKN018 OVC042 19/16 A2958 RMK AO2 SLP014 T01890156 $
KUGN - Waukegan, Illinois, USA
Distance from station: NE 42mi, 68km
Updated: Sun, 19-May-2019 8:55am CDT
Mostly cloudy
Mostly cloudy
 Wind from SSW
Wind: SSW 9 mph , 15 km/h
Temperature: 64°F , 18°C
Dew Point: 59°F , 15°C
Humidity: 83%
Barometer: 29.58 inHg , 1001.7 hPa
Clouds: Mostly cloudy
Visibility: 10 miles , 16 km
Cloud details: Mostly cloudy 2700 ft
Mostly cloudy 3400 ft
2019/05/19 13:55 KUGN 191355Z 20008KT 10SM BKN027 BKN034 18/15 A2958 RMK AO2 SLP014 T01830150
 
KBUU - Burlington, Wisconsin, USA
Distance from station: N 50mi, 81km
Updated: Sun, 19-May-2019 9:15am CDT
Partly cloudy
Partly cloudy
 Wind from calm
Wind: Calm
Temperature: 57°F , 14°C
Dew Point: 55°F , 13°C
Humidity: 94%
Barometer: 29.57 inHg , 1001.4 hPa
Clouds: Partly cloudy
Visibility: 7 miles , 11 km
Cloud details: Partly cloudy 1900 ft
Partly cloudy 2600 ft
Partly cloudy 3800 ft
2019/05/19 14:15 KBUU 191415Z AUTO 00000KT 7SM SCT019 SCT026 SCT038 14/13 A2957 RMK AO2 T01400134